createdAt,value
2023-01-20T00:01:29.625Z,-0.80
2023-01-20T00:03:58.086Z,-0.82
2023-01-20T00:06:30.176Z,-0.99
2023-01-20T00:09:00.382Z,-1.03
2023-01-20T00:11:29.038Z,-1.01
2023-01-20T00:13:58.562Z,-1.05
2023-01-20T00:16:26.775Z,-1.28
2023-01-20T00:18:54.732Z,-1.59
2023-01-20T00:21:22.525Z,-1.81
2023-01-20T00:23:50.348Z,-1.64
2023-01-20T00:26:20.486Z,-1.66
2023-01-20T00:28:48.606Z,-2.00
2023-01-20T00:31:19.164Z,-2.15
2023-01-20T00:33:48.017Z,-2.38
2023-01-20T00:36:18.271Z,-1.99
2023-01-20T00:38:46.038Z,-1.79
2023-01-20T00:41:14.145Z,-1.64
2023-01-20T00:43:41.407Z,-1.61
2023-01-20T00:46:09.842Z,-1.50
2023-01-20T00:48:37.881Z,-1.63
2023-01-20T00:51:06.673Z,-1.78
2023-01-20T00:53:34.686Z,-1.70
2023-01-20T00:56:02.364Z,-1.70
2023-01-20T00:58:29.710Z,-1.79
2023-01-20T01:00:58.945Z,-1.57
2023-01-20T01:03:28.165Z,-1.50
2023-01-20T01:06:06.423Z,-1.51
2023-01-20T01:08:35.069Z,-1.58
2023-01-20T01:11:03.055Z,-1.74
2023-01-20T01:13:31.313Z,-1.85
2023-01-20T01:15:58.969Z,-1.66
2023-01-20T01:18:26.208Z,-1.52
2023-01-20T01:20:53.803Z,-1.46
2023-01-20T01:23:21.064Z,-1.58
2023-01-20T01:25:48.629Z,-1.67
2023-01-20T01:28:16.127Z,-2.03
2023-01-20T01:30:43.713Z,-2.11
2023-01-20T01:33:11.157Z,-1.85
2023-01-20T01:35:38.745Z,-1.63
2023-01-20T01:38:06.012Z,-1.78
2023-01-20T01:40:34.492Z,-1.78
2023-01-20T01:43:01.764Z,-1.80
2023-01-20T01:45:30.735Z,-1.87
2023-01-20T01:48:03.287Z,-2.04
2023-01-20T01:50:35.881Z,-1.95
2023-01-20T01:53:03.404Z,-2.32
2023-01-20T01:55:35.290Z,-2.18
2023-01-20T01:58:05.269Z,-2.07
2023-01-20T02:00:33.085Z,-2.29
2023-01-20T02:03:00.940Z,-1.99
2023-01-20T02:05:30.790Z,-2.07
2023-01-20T02:07:59.317Z,-2.11
2023-01-20T02:10:27.001Z,-2.19
2023-01-20T02:12:54.829Z,-2.07
2023-01-20T02:15:30.544Z,-2.09
2023-01-20T02:18:03.949Z,-2.16
2023-01-20T02:20:57.639Z,-2.32
2023-01-20T02:23:47.942Z,-2.65
2023-01-20T02:26:37.965Z,-2.45
2023-01-20T02:29:30.072Z,-2.63
2023-01-20T02:31:57.457Z,-2.61
2023-01-20T02:34:46.113Z,-2.62
2023-01-20T02:37:25.573Z,-2.57
2023-01-20T02:40:08.433Z,-2.75
2023-01-20T02:42:47.147Z,-2.94
2023-01-20T02:45:34.239Z,-3.15
2023-01-20T02:48:31.727Z,-3.23
2023-01-20T02:51:01.974Z,-3.20
2023-01-20T02:53:44.934Z,-3.21
2023-01-20T02:56:13.048Z,-3.19
2023-01-20T02:58:50.305Z,-3.12
2023-01-20T03:01:25.187Z,-2.90
2023-01-20T03:03:57.850Z,-2.84
2023-01-20T03:06:28.818Z,-2.77
2023-01-20T03:08:58.899Z,-2.69
2023-01-20T03:11:27.587Z,-2.75
2023-01-20T03:13:55.070Z,-2.55
2023-01-20T03:16:25.209Z,-2.74
2023-01-20T03:18:54.473Z,-2.69
2023-01-20T03:21:22.547Z,-2.72
2023-01-20T03:23:55.895Z,-2.80
2023-01-20T03:26:23.984Z,-2.75
2023-01-20T03:28:52.148Z,-2.97
2023-01-20T03:31:29.896Z,-3.00
2023-01-20T03:34:00.388Z,-3.05
2023-01-20T03:36:30.232Z,-3.00
2023-01-20T03:38:59.516Z,-3.25
2023-01-20T03:41:55.912Z,-3.19
2023-01-20T03:44:41.684Z,-3.26
2023-01-20T03:47:34.568Z,-3.19
2023-01-20T03:50:11.279Z,-3.08
2023-01-20T03:52:48.721Z,-3.08
2023-01-20T03:55:23.045Z,-3.10
2023-01-20T03:58:08.068Z,-3.01
2023-01-20T04:00:41.002Z,-2.76
2023-01-20T04:03:15.395Z,-2.55
2023-01-20T04:05:44.368Z,-2.70
2023-01-20T04:08:14.854Z,-2.63
2023-01-20T04:10:45.664Z,-2.54
2023-01-20T04:13:13.076Z,-2.72
2023-01-20T04:15:45.596Z,-2.66
2023-01-20T04:18:13.757Z,-2.67
2023-01-20T04:20:42.139Z,-2.71
2023-01-20T04:23:17.933Z,-2.76
2023-01-20T04:25:45.848Z,-2.63
2023-01-20T04:28:13.077Z,-2.69
2023-01-20T04:30:40.702Z,-2.65
2023-01-20T04:33:07.976Z,-2.46
2023-01-20T04:35:35.661Z,-2.24
2023-01-20T04:38:02.983Z,-2.17
2023-01-20T04:40:30.673Z,-2.16
2023-01-20T04:42:57.991Z,-2.28
2023-01-20T04:45:25.608Z,-2.12
2023-01-20T04:47:52.935Z,-2.27
2023-01-20T04:50:20.571Z,-2.15
2023-01-20T04:52:48.253Z,-2.27
2023-01-20T04:55:16.230Z,-2.35
2023-01-20T04:57:43.728Z,-2.30
2023-01-20T05:00:12.138Z,-2.40
2023-01-20T05:02:39.441Z,-2.51
2023-01-20T05:05:07.335Z,-2.44
2023-01-20T05:07:34.807Z,-2.56
2023-01-20T05:10:02.349Z,-2.74
2023-01-20T05:12:29.742Z,-3.05
2023-01-20T05:14:57.397Z,-3.16
2023-01-20T05:17:24.638Z,-3.06
2023-01-20T05:19:52.153Z,-3.22
2023-01-20T05:22:19.454Z,-3.36
2023-01-20T05:24:46.974Z,-3.44
2023-01-20T05:27:14.344Z,-3.52
2023-01-20T05:29:41.870Z,-3.11
2023-01-20T05:32:09.103Z,-3.04
2023-01-20T05:34:36.645Z,-2.93
2023-01-20T05:37:03.837Z,-2.67
2023-01-20T05:39:31.372Z,-2.61
2023-01-20T05:41:58.712Z,-2.55
2023-01-20T05:44:26.334Z,-2.48
2023-01-20T05:46:53.629Z,-2.69
2023-01-20T05:49:21.197Z,-2.60
2023-01-20T05:51:48.644Z,-2.40
2023-01-20T05:54:16.293Z,-2.22
2023-01-20T05:56:43.619Z,-2.20
2023-01-20T05:59:11.252Z,-2.27
2023-01-20T06:01:38.607Z,-2.27
2023-01-20T06:04:06.633Z,-2.24
2023-01-20T06:06:34.044Z,-2.28
2023-01-20T06:09:01.849Z,-2.43
2023-01-20T06:11:29.596Z,-2.46
2023-01-20T06:13:57.118Z,-2.39
2023-01-20T06:16:24.424Z,-2.21
2023-01-20T06:18:51.985Z,-2.03
2023-01-20T06:21:19.270Z,-2.09
2023-01-20T06:23:47.003Z,-2.07
2023-01-20T06:26:15.099Z,-2.00
2023-01-20T06:28:43.141Z,-2.27
2023-01-20T06:31:15.918Z,-2.27
2023-01-20T06:33:44.164Z,-2.02
2023-01-20T06:36:17.660Z,-2.05
2023-01-20T06:38:50.746Z,-1.88
2023-01-20T06:41:19.638Z,-1.74
2023-01-20T06:43:47.615Z,-1.61
2023-01-20T06:46:16.230Z,-1.86
2023-01-20T06:48:45.277Z,-2.07
2023-01-20T06:51:15.527Z,-2.12
2023-01-20T06:53:43.752Z,-2.22
2023-01-20T06:56:12.941Z,-2.31
2023-01-20T06:58:41.292Z,-2.25
2023-01-20T07:01:20.731Z,-2.21
2023-01-20T07:03:48.395Z,-2.52
2023-01-20T07:06:20.143Z,-2.54
2023-01-20T07:08:47.820Z,-2.24
2023-01-20T07:11:15.060Z,-2.38
2023-01-20T07:13:43.279Z,-2.50
2023-01-20T07:16:14.409Z,-2.52
2023-01-20T07:18:47.582Z,-2.60
2023-01-20T07:21:14.944Z,-3.01
2023-01-20T07:23:42.505Z,-2.59
2023-01-20T07:26:12.398Z,-2.22
2023-01-20T07:28:40.779Z,-2.21
2023-01-20T07:31:19.224Z,-2.38
2023-01-20T07:33:47.190Z,-2.18
2023-01-20T07:36:15.755Z,-2.14
2023-01-20T07:38:43.334Z,-2.11
2023-01-20T07:41:16.017Z,-1.93
2023-01-20T07:43:45.100Z,-1.94
2023-01-20T07:46:13.686Z,-1.76
2023-01-20T07:48:41.687Z,-1.70
2023-01-20T07:51:12.137Z,-1.68
2023-01-20T07:53:43.654Z,-1.74
2023-01-20T07:56:15.536Z,-1.85
2023-01-20T07:58:47.676Z,-1.68
2023-01-20T08:01:18.402Z,-1.67
2023-01-20T08:03:46.476Z,-1.56
2023-01-20T08:06:16.778Z,-1.76
2023-01-20T08:08:44.658Z,-2.00
2023-01-20T08:11:14.174Z,-1.98
2023-01-20T08:13:42.203Z,-1.84
2023-01-20T08:16:12.376Z,-2.08
2023-01-20T08:18:40.762Z,-2.13
2023-01-20T08:21:16.460Z,-2.98
2023-01-20T08:23:44.032Z,-2.83
2023-01-20T08:26:11.394Z,-2.59
2023-01-20T08:28:38.935Z,-2.32
2023-01-20T08:31:09.123Z,-2.22
2023-01-20T08:33:37.179Z,-2.09
2023-01-20T08:36:13.456Z,-1.79
2023-01-20T08:38:42.244Z,-1.74
2023-01-20T08:41:18.338Z,-1.65
2023-01-20T08:43:45.940Z,-1.45
2023-01-20T08:46:15.398Z,-1.36
2023-01-20T08:48:44.349Z,-1.44
2023-01-20T08:51:15.940Z,-1.25
2023-01-20T08:53:43.912Z,-1.32
2023-01-20T08:56:12.642Z,-1.33
2023-01-20T08:58:40.550Z,-1.24
2023-01-20T09:01:12.098Z,-1.17
2023-01-20T09:03:40.967Z,-1.08
2023-01-20T09:06:09.319Z,-1.11
2023-01-20T09:08:38.069Z,-1.16
2023-01-20T09:11:11.258Z,-1.15
2023-01-20T09:13:39.440Z,-0.98
2023-01-20T09:16:07.270Z,-0.97
2023-01-20T09:18:35.538Z,-0.74
2023-01-20T09:21:06.748Z,-0.81
2023-01-20T09:23:36.835Z,-0.93
2023-01-20T09:26:05.935Z,-1.27
2023-01-20T09:28:34.480Z,-1.15
2023-01-20T09:31:05.537Z,-1.13
2023-01-20T09:33:36.211Z,-1.02
2023-01-20T09:36:04.467Z,-0.90
2023-01-20T09:38:50.502Z,-0.97
2023-01-20T09:41:49.864Z,-0.92
2023-01-20T09:44:43.090Z,-0.71
2023-01-20T09:47:26.191Z,-0.66
2023-01-20T09:50:30.367Z,-0.45
2023-01-20T09:53:32.787Z,-0.56
2023-01-20T09:56:09.086Z,-0.64
2023-01-20T09:59:07.071Z,-0.45
2023-01-20T10:01:40.956Z,-0.32
2023-01-20T10:04:17.518Z,-0.36
2023-01-20T10:06:50.374Z,-0.22
2023-01-20T10:09:26.286Z,-0.17
2023-01-20T10:12:09.673Z,-0.10
2023-01-20T10:15:18.691Z,-0.09
2023-01-20T10:17:59.636Z,-0.11
2023-01-20T10:20:41.731Z,-0.18
2023-01-20T10:23:17.691Z,-0.08
2023-01-20T10:25:53.338Z,0.03
2023-01-20T10:28:29.306Z,-0.23
2023-01-20T10:31:00.956Z,0.01
2023-01-20T10:33:35.417Z,-0.09
2023-01-20T10:36:02.945Z,-0.17
2023-01-20T10:38:43.253Z,0.07
2023-01-20T10:41:21.548Z,0.02
2023-01-20T10:43:49.098Z,0.09
2023-01-20T10:46:28.248Z,-0.10
2023-01-20T10:49:18.434Z,0.04
2023-01-20T10:51:54.412Z,-0.26
2023-01-20T10:54:30.965Z,-0.28
2023-01-20T10:56:59.667Z,-0.43
2023-01-20T10:59:53.538Z,-0.34
2023-01-20T11:02:32.135Z,-0.10
2023-01-20T11:05:18.717Z,0.04
2023-01-20T11:07:47.685Z,0.02
2023-01-20T11:10:20.216Z,0.13
2023-01-20T11:12:50.830Z,0.23
2023-01-20T11:15:22.019Z,0.44
2023-01-20T11:18:15.386Z,0.58
2023-01-20T11:20:56.090Z,0.68
2023-01-20T11:23:27.209Z,0.79
2023-01-20T11:25:57.796Z,0.71
2023-01-20T11:28:25.816Z,0.55
2023-01-20T11:30:56.354Z,0.50
2023-01-20T11:33:26.587Z,0.60
2023-01-20T11:36:17.801Z,0.72
2023-01-20T11:38:49.814Z,0.89
2023-01-20T11:41:26.183Z,0.63
2023-01-20T11:43:56.368Z,0.82
2023-01-20T11:46:27.049Z,0.48
2023-01-20T11:49:24.631Z,0.47
2023-01-20T11:51:56.929Z,0.49
2023-01-20T11:54:29.498Z,0.79
2023-01-20T11:57:01.790Z,0.67
2023-01-20T11:59:31.797Z,0.76
2023-01-20T12:02:06.964Z,0.95
2023-01-20T12:04:41.560Z,1.03
2023-01-20T12:07:24.366Z,1.21
2023-01-20T12:09:55.302Z,0.54
2023-01-20T12:13:00.215Z,0.46
2023-01-20T12:15:32.477Z,0.16
2023-01-20T12:18:08.229Z,0.04
2023-01-20T12:20:54.597Z,0.06
2023-01-20T12:23:47.786Z,0.48
2023-01-20T12:26:17.408Z,0.16
2023-01-20T12:28:53.949Z,-0.32
2023-01-20T12:31:24.145Z,-0.08
2023-01-20T12:33:59.036Z,-0.07
2023-01-20T12:36:32.570Z,-0.20
2023-01-20T12:39:02.879Z,-0.02
2023-01-20T12:41:48.873Z,-0.23
2023-01-20T12:44:51.844Z,-0.60
2023-01-20T12:47:37.319Z,-0.04
2023-01-20T12:50:23.623Z,-0.94
2023-01-20T12:53:17.065Z,-0.52
2023-01-20T12:56:22.990Z,-0.34
2023-01-20T12:59:06.344Z,-1.37
2023-01-20T13:01:55.466Z,-1.25
2023-01-20T13:04:25.311Z,-1.22
2023-01-20T13:07:08.008Z,-0.73
2023-01-20T13:09:49.980Z,-1.20
2023-01-20T13:12:36.230Z,-1.03
2023-01-20T13:15:36.656Z,-0.72
2023-01-20T13:18:18.530Z,-0.85
2023-01-20T13:20:46.724Z,-1.10
2023-01-20T13:23:18.465Z,-1.11
2023-01-20T13:25:47.548Z,-0.82
2023-01-20T13:28:18.336Z,-1.01
2023-01-20T13:30:50.937Z,-0.92
2023-01-20T13:33:33.133Z,-0.89
2023-01-20T13:36:14.414Z,-1.11
2023-01-20T13:38:43.096Z,-1.22
2023-01-20T13:41:11.048Z,-1.26
2023-01-20T13:43:44.447Z,-1.30
2023-01-20T13:46:34.207Z,-1.93
2023-01-20T13:49:13.891Z,-2.02
2023-01-20T13:51:46.086Z,-2.07
2023-01-20T13:54:25.617Z,-1.93
2023-01-20T13:56:53.146Z,-2.10
2023-01-20T13:59:20.745Z,-2.19
2023-01-20T14:01:48.183Z,-1.95
2023-01-20T14:04:18.713Z,-1.78
2023-01-20T14:06:47.904Z,-1.75
2023-01-20T14:09:23.753Z,-1.81
2023-01-20T14:11:53.203Z,-1.51
2023-01-20T14:14:24.600Z,-1.50
2023-01-20T14:16:52.885Z,-1.60
2023-01-20T14:19:32.449Z,-1.75
2023-01-20T14:22:20.544Z,-1.89
2023-01-20T14:24:49.747Z,-1.98
2023-01-20T14:27:16.902Z,-1.98
2023-01-20T14:29:45.242Z,-2.00
2023-01-20T14:32:31.399Z,-2.02
2023-01-20T14:34:59.784Z,-1.93
2023-01-20T14:37:30.103Z,-2.04
2023-01-20T14:40:00.805Z,-1.94
2023-01-20T14:42:29.296Z,-1.98
2023-01-20T14:44:57.769Z,-2.06
2023-01-20T14:47:27.051Z,-2.20
2023-01-20T14:49:55.418Z,-2.27
2023-01-20T14:52:28.768Z,-2.16
2023-01-20T14:54:57.174Z,-2.15
2023-01-20T14:57:34.977Z,-2.12
2023-01-20T15:00:11.712Z,-2.09
2023-01-20T15:02:41.301Z,-2.05
2023-01-20T15:05:31.591Z,-1.80
2023-01-20T15:08:19.180Z,-2.08
2023-01-20T15:10:47.894Z,-1.82
2023-01-20T15:13:26.647Z,-1.83
2023-01-20T15:16:20.957Z,-1.36
2023-01-20T15:19:17.628Z,-1.24
2023-01-20T15:21:46.130Z,-1.21
2023-01-20T15:24:34.680Z,-1.50
2023-01-20T15:27:04.157Z,-1.42
2023-01-20T15:29:36.709Z,-1.47
2023-01-20T15:32:12.774Z,-1.49
2023-01-20T15:34:40.099Z,-1.48
2023-01-20T15:37:18.479Z,-1.45
2023-01-20T15:39:45.789Z,-1.52
2023-01-20T15:42:15.389Z,-1.54
2023-01-20T15:44:42.753Z,-1.54
2023-01-20T15:47:21.767Z,-1.59
2023-01-20T15:49:49.218Z,-1.66
2023-01-20T15:52:16.757Z,-1.67
2023-01-20T15:54:44.050Z,-1.73
2023-01-20T15:57:16.972Z,-1.58
2023-01-20T15:59:49.691Z,-1.66
2023-01-20T16:02:23.183Z,-1.53
2023-01-20T16:04:50.968Z,-1.38
2023-01-20T16:07:21.194Z,-1.65
2023-01-20T16:09:48.673Z,-1.18
2023-01-20T16:12:18.541Z,-1.37
2023-01-20T16:14:46.164Z,-1.27
2023-01-20T16:17:19.277Z,-1.22
2023-01-20T16:19:47.494Z,-1.79
2023-01-20T16:22:15.044Z,-1.91
2023-01-20T16:24:42.795Z,-1.53
2023-01-20T16:27:21.542Z,-1.64
2023-01-20T16:29:49.421Z,-1.41
2023-01-20T16:32:18.787Z,-1.37
2023-01-20T16:34:47.696Z,-1.52
2023-01-20T16:37:15.206Z,-1.63
2023-01-20T16:39:42.552Z,-1.75
2023-01-20T16:42:15.233Z,-1.60
2023-01-20T16:44:42.443Z,-1.79
2023-01-20T16:47:09.971Z,-1.96
2023-01-20T16:49:37.289Z,-1.96
2023-01-20T16:52:05.064Z,-1.64
2023-01-20T16:54:32.339Z,-1.50
2023-01-20T16:56:59.872Z,-1.61
2023-01-20T16:59:27.141Z,-1.96
2023-01-20T17:01:54.750Z,-2.08
2023-01-20T17:04:22.157Z,-2.26
2023-01-20T17:06:52.779Z,-2.25
2023-01-20T17:09:20.153Z,-2.00
2023-01-20T17:11:47.691Z,-1.96
2023-01-20T17:14:15.684Z,-1.73
2023-01-20T17:16:43.426Z,-1.81
2023-01-20T17:19:11.145Z,-2.37
2023-01-20T17:21:39.469Z,-2.46
2023-01-20T17:24:07.476Z,-2.34
2023-01-20T17:26:37.104Z,-2.00
2023-01-20T17:29:05.369Z,-1.86
2023-01-20T17:31:36.490Z,-1.71
2023-01-20T17:34:04.931Z,-1.68
2023-01-20T17:36:35.987Z,-2.25
2023-01-20T17:39:04.292Z,-2.37
2023-01-20T17:41:32.742Z,-2.33
2023-01-20T17:44:00.232Z,-2.23
2023-01-20T17:46:29.850Z,-2.30
2023-01-20T17:48:58.737Z,-1.93
2023-01-20T17:51:28.853Z,-2.33
2023-01-20T17:53:57.975Z,-2.37
2023-01-20T17:56:25.934Z,-2.13
2023-01-20T17:58:54.095Z,-2.22
2023-01-20T18:01:27.218Z,-2.30
2023-01-20T18:03:56.417Z,-2.11
2023-01-20T18:06:25.465Z,-2.31
2023-01-20T18:08:55.592Z,-2.40
2023-01-20T18:11:24.964Z,-2.47
2023-01-20T18:13:55.376Z,-2.37
2023-01-20T18:16:28.586Z,-2.32
2023-01-20T18:18:59.003Z,-2.11
2023-01-20T18:21:31.651Z,-2.03
2023-01-20T18:24:00.035Z,-2.37
2023-01-20T18:26:30.004Z,-2.52
2023-01-20T18:29:00.089Z,-2.69
2023-01-20T18:31:29.545Z,-2.33
2023-01-20T18:34:02.139Z,-2.59
2023-01-20T18:36:35.797Z,-2.34
2023-01-20T18:39:12.775Z,-2.19
2023-01-20T18:41:40.549Z,-2.23
2023-01-20T18:44:08.140Z,-2.09
2023-01-20T18:46:36.281Z,-1.83
2023-01-20T18:49:05.821Z,-1.80
2023-01-20T18:51:34.980Z,-1.76
2023-01-20T18:54:07.847Z,-1.58
2023-01-20T18:56:35.889Z,-1.59
2023-01-20T18:59:04.800Z,-1.61
2023-01-20T19:01:39.821Z,-1.50
2023-01-20T19:04:10.208Z,-1.47
2023-01-20T19:06:40.656Z,-1.43
2023-01-20T19:09:08.728Z,-1.41
2023-01-20T19:11:39.714Z,-1.29
2023-01-20T19:14:09.482Z,-1.23
2023-01-20T19:16:39.232Z,-1.24
2023-01-20T19:19:07.901Z,-1.22
2023-01-20T19:21:36.584Z,-1.22
2023-01-20T19:24:07.642Z,-1.25
2023-01-20T19:26:37.682Z,-1.22
2023-01-20T19:29:07.938Z,-1.18
2023-01-20T19:31:38.121Z,-1.18
2023-01-20T19:34:06.833Z,-1.18
2023-01-20T19:36:35.209Z,-1.15
2023-01-20T19:39:02.664Z,-1.13
2023-01-20T19:41:36.109Z,-1.17
2023-01-20T19:44:06.721Z,-1.18
2023-01-20T19:46:37.010Z,-1.16
2023-01-20T19:49:04.693Z,-1.18
2023-01-20T19:51:32.392Z,-1.16
2023-01-20T19:54:01.194Z,-1.16
2023-01-20T19:56:34.225Z,-1.05
2023-01-20T19:59:02.529Z,-1.08
2023-01-20T20:01:33.127Z,-1.11
2023-01-20T20:04:05.678Z,-1.16
2023-01-20T20:06:38.959Z,-1.15
2023-01-20T20:09:12.177Z,-1.22
2023-01-20T20:11:40.428Z,-1.20
2023-01-20T20:14:11.320Z,-1.27
2023-01-20T20:16:39.101Z,-1.33
2023-01-20T20:19:08.491Z,-1.32
2023-01-20T20:21:36.292Z,-1.37
2023-01-20T20:24:05.408Z,-1.40
2023-01-20T20:26:35.809Z,-1.40
2023-01-20T20:29:05.203Z,-1.49
2023-01-20T20:31:34.399Z,-1.57
2023-01-20T20:34:03.249Z,-1.59
2023-01-20T20:36:32.962Z,-1.58
2023-01-20T20:39:01.729Z,-1.60
2023-01-20T20:41:31.887Z,-1.54
2023-01-20T20:44:00.893Z,-1.47
2023-01-20T20:46:29.770Z,-1.45
2023-01-20T20:49:02.153Z,-1.41
2023-01-20T20:51:33.082Z,-1.24
2023-01-20T20:54:03.155Z,-1.29
2023-01-20T20:56:34.142Z,-1.29
2023-01-20T20:59:03.643Z,-0.97
2023-01-20T21:01:33.868Z,-0.86
2023-01-20T21:04:02.554Z,-1.04
2023-01-20T21:06:30.890Z,-1.15
2023-01-20T21:09:01.392Z,-1.15
2023-01-20T21:11:29.377Z,-1.14
2023-01-20T21:13:56.836Z,-1.14
2023-01-20T21:16:26.213Z,-1.12
2023-01-20T21:18:57.853Z,-1.14
2023-01-20T21:21:25.863Z,-1.28
2023-01-20T21:23:56.089Z,-1.30
2023-01-20T21:26:25.901Z,-1.42
2023-01-20T21:28:54.667Z,-1.63
2023-01-20T21:31:26.692Z,-1.77
2023-01-20T21:33:58.439Z,-1.93
2023-01-20T21:36:26.895Z,-2.03
2023-01-20T21:38:54.482Z,-2.08
2023-01-20T21:41:22.197Z,-2.11
2023-01-20T21:44:08.059Z,-2.13
2023-01-20T21:46:40.451Z,-2.12
2023-01-20T21:49:27.168Z,-2.18
2023-01-20T21:52:14.218Z,-2.22
2023-01-20T21:54:42.091Z,-2.28
2023-01-20T21:57:09.695Z,-2.34
2023-01-20T21:59:37.504Z,-2.43
2023-01-20T22:02:05.786Z,-2.40
2023-01-20T22:04:34.863Z,-2.21
2023-01-20T22:07:02.511Z,-2.08
2023-01-20T22:09:29.916Z,-1.69
2023-01-20T22:11:57.571Z,-1.50
2023-01-20T22:14:24.851Z,-1.29
2023-01-20T22:16:52.409Z,-1.18
2023-01-20T22:19:19.645Z,-1.08
2023-01-20T22:21:47.299Z,-1.11
2023-01-20T22:24:14.549Z,-0.89
2023-01-20T22:26:42.125Z,-0.82
2023-01-20T22:29:09.594Z,-0.72
2023-01-20T22:31:37.205Z,-0.65
2023-01-20T22:34:06.375Z,-0.66
2023-01-20T22:36:34.360Z,-0.74
2023-01-20T22:39:03.147Z,-0.69
2023-01-20T22:41:31.278Z,-0.64
2023-01-20T22:43:58.958Z,-0.82
2023-01-20T22:46:28.894Z,-0.74
2023-01-20T22:48:58.182Z,-0.67
2023-01-20T22:51:28.478Z,-0.58
2023-01-20T22:53:57.196Z,-0.53
2023-01-20T22:56:26.950Z,-0.34
2023-01-20T22:58:56.716Z,-0.21
2023-01-20T23:01:30.888Z,-0.22
2023-01-20T23:04:00.873Z,-0.26
2023-01-20T23:06:30.795Z,-0.11
2023-01-20T23:08:59.406Z,-0.26
2023-01-20T23:11:27.098Z,-0.18
2023-01-20T23:13:54.552Z,0.01
2023-01-20T23:16:23.023Z,0.01
2023-01-20T23:18:51.478Z,-0.28
2023-01-20T23:21:20.185Z,-0.26
2023-01-20T23:23:54.148Z,-0.10
2023-01-20T23:26:24.157Z,-0.22
2023-01-20T23:28:53.586Z,-0.19
2023-01-20T23:31:23.683Z,-0.08
2023-01-20T23:33:51.129Z,-0.10
2023-01-20T23:36:24.241Z,-0.15
2023-01-20T23:38:54.580Z,-0.26
2023-01-20T23:41:23.052Z,-0.31
2023-01-20T23:43:50.411Z,-0.08
2023-01-20T23:46:18.101Z,-0.37
2023-01-20T23:48:47.018Z,-0.22
2023-01-20T23:51:14.749Z,-0.19
2023-01-20T23:53:42.184Z,-0.13
2023-01-20T23:56:16.330Z,-0.32
2023-01-20T23:58:44.313Z,-0.48
